sensor_id;sensor_type;location;lat;lon;timestamp;P1;durP1;ratioP1;P2;durP2;ratioP2
71462;SDS011;59266;52.608;13.260;2024-02-04T00:01:17;9.23;;;1.90;;
71462;SDS011;59266;52.608;13.260;2024-02-04T00:03:44;14.00;;;2.38;;
71462;SDS011;59266;52.608;13.260;2024-02-04T00:06:11;12.20;;;2.10;;
71462;SDS011;59266;52.608;13.260;2024-02-04T00:08:39;14.50;;;2.15;;
71462;SDS011;59266;52.608;13.260;2024-02-04T00:11:06;15.18;;;2.78;;
71462;SDS011;59266;52.608;13.260;2024-02-04T00:13:34;15.43;;;2.17;;
71462;SDS011;59266;52.608;13.260;2024-02-04T00:16:01;12.38;;;1.95;;
71462;SDS011;59266;52.608;13.260;2024-02-04T00:18:28;9.27;;;1.88;;
71462;SDS011;59266;52.608;13.260;2024-02-04T00:20:55;19.35;;;2.50;;
71462;SDS011;59266;52.608;13.260;2024-02-04T00:23:21;16.83;;;1.90;;
71462;SDS011;59266;52.608;13.260;2024-02-04T00:25:48;13.55;;;2.88;;
71462;SDS011;59266;52.608;13.260;2024-02-04T00:28:14;12.52;;;1.88;;
71462;SDS011;59266;52.608;13.260;2024-02-04T00:30:41;13.98;;;1.98;;
71462;SDS011;59266;52.608;13.260;2024-02-04T00:33:08;11.20;;;1.33;;
71462;SDS011;59266;52.608;13.260;2024-02-04T00:35:35;8.38;;;1.92;;
71462;SDS011;59266;52.608;13.260;2024-02-04T00:38:04;12.75;;;1.95;;
71462;SDS011;59266;52.608;13.260;2024-02-04T00:40:31;14.45;;;2.00;;
71462;SDS011;59266;52.608;13.260;2024-02-04T00:43:02;8.70;;;1.83;;
71462;SDS011;59266;52.608;13.260;2024-02-04T00:45:29;21.30;;;2.47;;
71462;SDS011;59266;52.608;13.260;2024-02-04T00:47:55;9.43;;;1.80;;
71462;SDS011;59266;52.608;13.260;2024-02-04T00:50:22;12.90;;;1.77;;
71462;SDS011;59266;52.608;13.260;2024-02-04T00:52:49;36.38;;;3.28;;
71462;SDS011;59266;52.608;13.260;2024-02-04T00:55:15;13.50;;;2.10;;
71462;SDS011;59266;52.608;13.260;2024-02-04T00:57:42;12.55;;;1.70;;
71462;SDS011;59266;52.608;13.260;2024-02-04T01:00:09;12.48;;;1.85;;
71462;SDS011;59266;52.608;13.260;2024-02-04T01:02:36;8.18;;;1.67;;
71462;SDS011;59266;52.608;13.260;2024-02-04T01:05:02;10.93;;;1.55;;
71462;SDS011;59266;52.608;13.260;2024-02-04T01:07:29;16.75;;;2.20;;
71462;SDS011;59266;52.608;13.260;2024-02-04T01:09:56;15.43;;;1.65;;
71462;SDS011;59266;52.608;13.260;2024-02-04T01:12:23;12.05;;;1.77;;
71462;SDS011;59266;52.608;13.260;2024-02-04T01:14:49;19.33;;;2.53;;
71462;SDS011;59266;52.608;13.260;2024-02-04T01:17:16;13.85;;;2.03;;
71462;SDS011;59266;52.608;13.260;2024-02-04T01:19:48;16.23;;;1.98;;
71462;SDS011;59266;52.608;13.260;2024-02-04T01:22:15;11.15;;;1.70;;
71462;SDS011;59266;52.608;13.260;2024-02-04T01:24:41;13.43;;;2.33;;
71462;SDS011;59266;52.608;13.260;2024-02-04T01:27:08;13.05;;;1.77;;
71462;SDS011;59266;52.608;13.260;2024-02-04T01:29:34;23.92;;;2.35;;
71462;SDS011;59266;52.608;13.260;2024-02-04T01:32:01;12.93;;;1.98;;
71462;SDS011;59266;52.608;13.260;2024-02-04T01:34:27;10.57;;;1.58;;
71462;SDS011;59266;52.608;13.260;2024-02-04T01:36:54;12.27;;;2.08;;
71462;SDS011;59266;52.608;13.260;2024-02-04T01:39:22;15.18;;;1.67;;
71462;SDS011;59266;52.608;13.260;2024-02-04T01:41:50;17.95;;;2.10;;
71462;SDS011;59266;52.608;13.260;2024-02-04T01:44:17;14.88;;;2.17;;
71462;SDS011;59266;52.608;13.260;2024-02-04T01:46:44;16.98;;;2.20;;
71462;SDS011;59266;52.608;13.260;2024-02-04T01:49:11;13.00;;;1.95;;
71462;SDS011;59266;52.608;13.260;2024-02-04T01:51:38;10.88;;;1.73;;
71462;SDS011;59266;52.608;13.260;2024-02-04T01:54:05;14.68;;;2.17;;
71462;SDS011;59266;52.608;13.260;2024-02-04T01:56:33;17.95;;;1.83;;
71462;SDS011;59266;52.608;13.260;2024-02-04T01:59:07;10.30;;;1.90;;
71462;SDS011;59266;52.608;13.260;2024-02-04T02:01:33;16.80;;;2.65;;
71462;SDS011;59266;52.608;13.260;2024-02-04T02:04:01;15.35;;;2.30;;
71462;SDS011;59266;52.608;13.260;2024-02-04T02:06:29;16.50;;;3.22;;
71462;SDS011;59266;52.608;13.260;2024-02-04T02:08:56;10.13;;;1.92;;
71462;SDS011;59266;52.608;13.260;2024-02-04T02:11:27;11.63;;;2.00;;
71462;SDS011;59266;52.608;13.260;2024-02-04T02:14:04;15.93;;;1.92;;
71462;SDS011;59266;52.608;13.260;2024-02-04T02:16:34;12.20;;;1.70;;
71462;SDS011;59266;52.608;13.260;2024-02-04T02:19:03;13.27;;;2.15;;
71462;SDS011;59266;52.608;13.260;2024-02-04T02:24:38;12.73;;;2.05;;
71462;SDS011;59266;52.608;13.260;2024-02-04T02:27:06;15.13;;;3.03;;
71462;SDS011;59266;52.608;13.260;2024-02-04T02:29:32;16.38;;;2.33;;
71462;SDS011;59266;52.608;13.260;2024-02-04T02:31:59;10.35;;;1.90;;
71462;SDS011;59266;52.608;13.260;2024-02-04T02:34:27;11.80;;;2.00;;
71462;SDS011;59266;52.608;13.260;2024-02-04T02:37:09;14.82;;;2.38;;
71462;SDS011;59266;52.608;13.260;2024-02-04T02:40:01;15.20;;;2.10;;
71462;SDS011;59266;52.608;13.260;2024-02-04T02:42:34;15.20;;;1.98;;
71462;SDS011;59266;52.608;13.260;2024-02-04T02:45:04;13.52;;;1.60;;
71462;SDS011;59266;52.608;13.260;2024-02-04T02:47:32;11.02;;;2.10;;
71462;SDS011;59266;52.608;13.260;2024-02-04T02:50:00;16.30;;;1.92;;
71462;SDS011;59266;52.608;13.260;2024-02-04T02:52:31;8.50;;;2.20;;
71462;SDS011;59266;52.608;13.260;2024-02-04T02:54:57;11.50;;;2.20;;
71462;SDS011;59266;52.608;13.260;2024-02-04T02:57:24;13.40;;;2.00;;
71462;SDS011;59266;52.608;13.260;2024-02-04T02:59:54;17.77;;;2.03;;
71462;SDS011;59266;52.608;13.260;2024-02-04T03:02:20;16.70;;;2.28;;
71462;SDS011;59266;52.608;13.260;2024-02-04T03:04:47;11.35;;;2.00;;
71462;SDS011;59266;52.608;13.260;2024-02-04T03:07:14;12.32;;;2.25;;
71462;SDS011;59266;52.608;13.260;2024-02-04T03:09:40;10.82;;;2.17;;
71462;SDS011;59266;52.608;13.260;2024-02-04T03:12:07;10.07;;;2.33;;
71462;SDS011;59266;52.608;13.260;2024-02-04T03:14:33;13.02;;;2.03;;
71462;SDS011;59266;52.608;13.260;2024-02-04T03:17:00;15.95;;;2.50;;
71462;SDS011;59266;52.608;13.260;2024-02-04T03:19:27;9.57;;;2.40;;
71462;SDS011;59266;52.608;13.260;2024-02-04T03:21:54;10.07;;;3.13;;
71462;SDS011;59266;52.608;13.260;2024-02-04T03:24:20;10.65;;;2.08;;
71462;SDS011;59266;52.608;13.260;2024-02-04T03:26:47;13.77;;;2.33;;
71462;SDS011;59266;52.608;13.260;2024-02-04T03:29:14;12.95;;;2.35;;
71462;SDS011;59266;52.608;13.260;2024-02-04T03:31:41;11.23;;;2.35;;
71462;SDS011;59266;52.608;13.260;2024-02-04T03:34:07;9.63;;;2.50;;
71462;SDS011;59266;52.608;13.260;2024-02-04T03:36:36;10.98;;;2.65;;
71462;SDS011;59266;52.608;13.260;2024-02-04T03:39:04;11.43;;;2.28;;
71462;SDS011;59266;52.608;13.260;2024-02-04T03:41:31;15.95;;;2.40;;
71462;SDS011;59266;52.608;13.260;2024-02-04T03:43:58;8.63;;;2.22;;
71462;SDS011;59266;52.608;13.260;2024-02-04T03:46:25;9.55;;;2.20;;
71462;SDS011;59266;52.608;13.260;2024-02-04T03:48:52;12.75;;;2.85;;
71462;SDS011;59266;52.608;13.260;2024-02-04T03:51:18;14.38;;;2.42;;
71462;SDS011;59266;52.608;13.260;2024-02-04T03:53:46;14.98;;;2.45;;
71462;SDS011;59266;52.608;13.260;2024-02-04T03:56:13;13.45;;;2.33;;
71462;SDS011;59266;52.608;13.260;2024-02-04T03:58:40;12.68;;;2.50;;
71462;SDS011;59266;52.608;13.260;2024-02-04T04:01:09;10.02;;;2.20;;
71462;SDS011;59266;52.608;13.260;2024-02-04T04:03:41;8.43;;;2.55;;
71462;SDS011;59266;52.608;13.260;2024-02-04T04:06:09;13.57;;;2.60;;
71462;SDS011;59266;52.608;13.260;2024-02-04T04:08:36;13.23;;;2.10;;
71462;SDS011;59266;52.608;13.260;2024-02-04T04:11:03;13.07;;;2.72;;
71462;SDS011;59266;52.608;13.260;2024-02-04T04:13:30;13.70;;;2.50;;
71462;SDS011;59266;52.608;13.260;2024-02-04T04:16:02;12.20;;;3.03;;
71462;SDS011;59266;52.608;13.260;2024-02-04T04:18:29;9.43;;;2.25;;
71462;SDS011;59266;52.608;13.260;2024-02-04T04:20:56;9.32;;;2.80;;
71462;SDS011;59266;52.608;13.260;2024-02-04T04:23:22;12.85;;;2.67;;
71462;SDS011;59266;52.608;13.260;2024-02-04T04:25:49;10.43;;;2.13;;
71462;SDS011;59266;52.608;13.260;2024-02-04T04:28:15;11.45;;;2.20;;
71462;SDS011;59266;52.608;13.260;2024-02-04T04:30:42;11.25;;;2.70;;
71462;SDS011;59266;52.608;13.260;2024-02-04T04:33:09;13.75;;;2.42;;
71462;SDS011;59266;52.608;13.260;2024-02-04T04:35:36;13.93;;;2.33;;
71462;SDS011;59266;52.608;13.260;2024-02-04T04:38:04;12.13;;;2.28;;
71462;SDS011;59266;52.608;13.260;2024-02-04T04:40:31;9.98;;;2.55;;
71462;SDS011;59266;52.608;13.260;2024-02-04T04:42:58;10.38;;;2.50;;
71462;SDS011;59266;52.608;13.260;2024-02-04T04:45:25;11.23;;;2.05;;
71462;SDS011;59266;52.608;13.260;2024-02-04T04:47:52;7.78;;;2.25;;
71462;SDS011;59266;52.608;13.260;2024-02-04T04:50:18;7.88;;;2.20;;
71462;SDS011;59266;52.608;13.260;2024-02-04T04:52:45;11.77;;;2.20;;
71462;SDS011;59266;52.608;13.260;2024-02-04T04:55:12;13.90;;;2.05;;
71462;SDS011;59266;52.608;13.260;2024-02-04T04:57:40;7.25;;;2.28;;
71462;SDS011;59266;52.608;13.260;2024-02-04T05:00:08;11.88;;;2.17;;
71462;SDS011;59266;52.608;13.260;2024-02-04T05:02:36;9.02;;;1.90;;
71462;SDS011;59266;52.608;13.260;2024-02-04T05:05:03;9.32;;;2.40;;
71462;SDS011;59266;52.608;13.260;2024-02-04T05:07:30;10.57;;;2.10;;
71462;SDS011;59266;52.608;13.260;2024-02-04T05:09:57;7.63;;;2.00;;
71462;SDS011;59266;52.608;13.260;2024-02-04T05:12:24;13.43;;;2.45;;
71462;SDS011;59266;52.608;13.260;2024-02-04T05:14:51;11.77;;;2.05;;
71462;SDS011;59266;52.608;13.260;2024-02-04T05:17:18;9.05;;;2.03;;
71462;SDS011;59266;52.608;13.260;2024-02-04T05:19:45;11.13;;;2.00;;
71462;SDS011;59266;52.608;13.260;2024-02-04T05:22:11;13.43;;;1.90;;
71462;SDS011;59266;52.608;13.260;2024-02-04T05:24:38;9.10;;;1.80;;
71462;SDS011;59266;52.608;13.260;2024-02-04T05:27:05;6.63;;;1.75;;
71462;SDS011;59266;52.608;13.260;2024-02-04T05:29:32;11.27;;;1.98;;
71462;SDS011;59266;52.608;13.260;2024-02-04T05:31:59;8.57;;;1.60;;
71462;SDS011;59266;52.608;13.260;2024-02-04T05:34:25;12.10;;;1.90;;
71462;SDS011;59266;52.608;13.260;2024-02-04T05:36:52;8.25;;;1.75;;
71462;SDS011;59266;52.608;13.260;2024-02-04T05:39:19;12.85;;;2.05;;
71462;SDS011;59266;52.608;13.260;2024-02-04T05:41:46;9.30;;;2.20;;
71462;SDS011;59266;52.608;13.260;2024-02-04T05:44:15;10.45;;;2.05;;
71462;SDS011;59266;52.608;13.260;2024-02-04T05:46:42;10.13;;;2.00;;
71462;SDS011;59266;52.608;13.260;2024-02-04T05:49:08;10.00;;;2.83;;
71462;SDS011;59266;52.608;13.260;2024-02-04T05:51:38;7.25;;;1.65;;
71462;SDS011;59266;52.608;13.260;2024-02-04T05:54:07;6.90;;;1.75;;
71462;SDS011;59266;52.608;13.260;2024-02-04T05:56:36;9.65;;;1.92;;
71462;SDS011;59266;52.608;13.260;2024-02-04T05:59:03;9.38;;;1.73;;
71462;SDS011;59266;52.608;13.260;2024-02-04T06:01:29;11.43;;;2.53;;
71462;SDS011;59266;52.608;13.260;2024-02-04T06:03:56;10.30;;;1.90;;
71462;SDS011;59266;52.608;13.260;2024-02-04T06:06:24;7.40;;;1.75;;
71462;SDS011;59266;52.608;13.260;2024-02-04T06:08:51;9.85;;;1.90;;
71462;SDS011;59266;52.608;13.260;2024-02-04T06:11:18;10.65;;;2.08;;
71462;SDS011;59266;52.608;13.260;2024-02-04T06:13:44;16.55;;;3.42;;
71462;SDS011;59266;52.608;13.260;2024-02-04T06:16:11;10.80;;;2.20;;
71462;SDS011;59266;52.608;13.260;2024-02-04T06:18:39;7.53;;;1.90;;
71462;SDS011;59266;52.608;13.260;2024-02-04T06:21:06;9.85;;;2.65;;
71462;SDS011;59266;52.608;13.260;2024-02-04T06:23:33;7.78;;;1.90;;
71462;SDS011;59266;52.608;13.260;2024-02-04T06:26:00;11.55;;;2.20;;
71462;SDS011;59266;52.608;13.260;2024-02-04T06:28:27;14.23;;;2.75;;
71462;SDS011;59266;52.608;13.260;2024-02-04T06:30:54;7.57;;;1.80;;
71462;SDS011;59266;52.608;13.260;2024-02-04T06:33:21;7.57;;;2.00;;
71462;SDS011;59266;52.608;13.260;2024-02-04T06:35:50;10.43;;;2.90;;
71462;SDS011;59266;52.608;13.260;2024-02-04T06:38:17;12.32;;;2.65;;
71462;SDS011;59266;52.608;13.260;2024-02-04T06:40:44;8.45;;;2.40;;
71462;SDS011;59266;52.608;13.260;2024-02-04T06:43:10;12.77;;;2.80;;
71462;SDS011;59266;52.608;13.260;2024-02-04T06:45:37;12.00;;;3.47;;
71462;SDS011;59266;52.608;13.260;2024-02-04T06:48:04;11.90;;;2.28;;
71462;SDS011;59266;52.608;13.260;2024-02-04T06:50:31;12.38;;;2.80;;
71462;SDS011;59266;52.608;13.260;2024-02-04T06:52:58;15.70;;;2.67;;
71462;SDS011;59266;52.608;13.260;2024-02-04T06:55:24;13.85;;;3.00;;
71462;SDS011;59266;52.608;13.260;2024-02-04T06:57:51;12.43;;;3.00;;
71462;SDS011;59266;52.608;13.260;2024-02-04T07:00:17;13.73;;;2.55;;
71462;SDS011;59266;52.608;13.260;2024-02-04T07:02:44;11.63;;;2.88;;
71462;SDS011;59266;52.608;13.260;2024-02-04T07:05:11;9.93;;;3.65;;
71462;SDS011;59266;52.608;13.260;2024-02-04T07:07:38;11.73;;;3.35;;
71462;SDS011;59266;52.608;13.260;2024-02-04T07:10:05;10.23;;;3.22;;
71462;SDS011;59266;52.608;13.260;2024-02-04T07:12:32;12.38;;;3.17;;
71462;SDS011;59266;52.608;13.260;2024-02-04T07:14:59;14.02;;;3.22;;
71462;SDS011;59266;52.608;13.260;2024-02-04T07:17:25;12.90;;;3.03;;
71462;SDS011;59266;52.608;13.260;2024-02-04T07:19:52;13.68;;;3.78;;
71462;SDS011;59266;52.608;13.260;2024-02-04T07:22:20;12.30;;;3.35;;
71462;SDS011;59266;52.608;13.260;2024-02-04T07:24:47;14.10;;;3.40;;
71462;SDS011;59266;52.608;13.260;2024-02-04T07:27:15;10.35;;;3.30;;
71462;SDS011;59266;52.608;13.260;2024-02-04T07:29:42;13.60;;;3.70;;
71462;SDS011;59266;52.608;13.260;2024-02-04T07:32:09;14.88;;;3.42;;
71462;SDS011;59266;52.608;13.260;2024-02-04T07:34:36;9.02;;;3.17;;
71462;SDS011;59266;52.608;13.260;2024-02-04T07:37:03;13.00;;;3.75;;
71462;SDS011;59266;52.608;13.260;2024-02-04T07:39:30;13.65;;;3.75;;
71462;SDS011;59266;52.608;13.260;2024-02-04T07:41:58;12.55;;;3.58;;
71462;SDS011;59266;52.608;13.260;2024-02-04T07:44:27;12.38;;;3.80;;
71462;SDS011;59266;52.608;13.260;2024-02-04T07:46:54;15.32;;;4.60;;
71462;SDS011;59266;52.608;13.260;2024-02-04T07:49:20;13.38;;;3.70;;
71462;SDS011;59266;52.608;13.260;2024-02-04T07:51:47;17.40;;;4.15;;
71462;SDS011;59266;52.608;13.260;2024-02-04T07:54:14;14.32;;;3.67;;
71462;SDS011;59266;52.608;13.260;2024-02-04T07:56:41;14.00;;;3.95;;
71462;SDS011;59266;52.608;13.260;2024-02-04T07:59:07;11.48;;;3.50;;
71462;SDS011;59266;52.608;13.260;2024-02-04T08:01:34;10.18;;;3.72;;
71462;SDS011;59266;52.608;13.260;2024-02-04T08:04:01;13.88;;;4.18;;
71462;SDS011;59266;52.608;13.260;2024-02-04T08:06:28;11.02;;;3.63;;
71462;SDS011;59266;52.608;13.260;2024-02-04T08:08:56;10.98;;;3.97;;
71462;SDS011;59266;52.608;13.260;2024-02-04T08:11:22;11.95;;;3.92;;
71462;SDS011;59266;52.608;13.260;2024-02-04T08:13:49;14.98;;;4.38;;
71462;SDS011;59266;52.608;13.260;2024-02-04T08:16:16;10.70;;;3.38;;
71462;SDS011;59266;52.608;13.260;2024-02-04T08:18:42;13.75;;;4.20;;
71462;SDS011;59266;52.608;13.260;2024-02-04T08:21:09;13.57;;;3.03;;
71462;SDS011;59266;52.608;13.260;2024-02-04T08:23:36;9.90;;;3.15;;
71462;SDS011;59266;52.608;13.260;2024-02-04T08:26:02;11.40;;;3.30;;
71462;SDS011;59266;52.608;13.260;2024-02-04T08:28:30;16.27;;;3.40;;
71462;SDS011;59266;52.608;13.260;2024-02-04T08:30:56;15.20;;;3.45;;
71462;SDS011;59266;52.608;13.260;2024-02-04T08:33:23;15.05;;;3.47;;
71462;SDS011;59266;52.608;13.260;2024-02-04T08:35:50;10.63;;;3.30;;
71462;SDS011;59266;52.608;13.260;2024-02-04T08:38:16;17.48;;;3.47;;
71462;SDS011;59266;52.608;13.260;2024-02-04T08:40:43;15.00;;;3.50;;
71462;SDS011;59266;52.608;13.260;2024-02-04T08:43:09;12.25;;;3.17;;
71462;SDS011;59266;52.608;13.260;2024-02-04T08:45:40;12.75;;;3.08;;
71462;SDS011;59266;52.608;13.260;2024-02-04T08:48:06;14.38;;;3.38;;
71462;SDS011;59266;52.608;13.260;2024-02-04T08:50:33;12.02;;;3.92;;
71462;SDS011;59266;52.608;13.260;2024-02-04T08:53:00;10.00;;;2.20;;
71462;SDS011;59266;52.608;13.260;2024-02-04T08:55:29;8.63;;;2.45;;
71462;SDS011;59266;52.608;13.260;2024-02-04T08:57:55;9.05;;;2.40;;
71462;SDS011;59266;52.608;13.260;2024-02-04T09:00:22;8.02;;;2.60;;
71462;SDS011;59266;52.608;13.260;2024-02-04T09:02:50;11.77;;;2.70;;
71462;SDS011;59266;52.608;13.260;2024-02-04T09:05:16;7.55;;;2.00;;
71462;SDS011;59266;52.608;13.260;2024-02-04T09:07:45;14.65;;;2.75;;
71462;SDS011;59266;52.608;13.260;2024-02-04T09:10:11;9.82;;;2.30;;
71462;SDS011;59266;52.608;13.260;2024-02-04T09:12:39;8.63;;;1.90;;
71462;SDS011;59266;52.608;13.260;2024-02-04T09:15:06;11.60;;;2.60;;
71462;SDS011;59266;52.608;13.260;2024-02-04T09:17:33;11.38;;;2.13;;
71462;SDS011;59266;52.608;13.260;2024-02-04T09:20:01;8.02;;;2.42;;
71462;SDS011;59266;52.608;13.260;2024-02-04T09:22:29;13.48;;;2.45;;
71462;SDS011;59266;52.608;13.260;2024-02-04T09:24:58;10.20;;;2.30;;
71462;SDS011;59266;52.608;13.260;2024-02-04T09:27:25;9.77;;;2.25;;
71462;SDS011;59266;52.608;13.260;2024-02-04T09:29:52;12.20;;;2.05;;
71462;SDS011;59266;52.608;13.260;2024-02-04T09:32:21;10.25;;;1.83;;
71462;SDS011;59266;52.608;13.260;2024-02-04T09:34:49;10.70;;;2.28;;
71462;SDS011;59266;52.608;13.260;2024-02-04T09:37:15;10.57;;;2.60;;
71462;SDS011;59266;52.608;13.260;2024-02-04T09:39:42;7.47;;;1.40;;
71462;SDS011;59266;52.608;13.260;2024-02-04T09:42:10;13.98;;;2.35;;
71462;SDS011;59266;52.608;13.260;2024-02-04T09:44:42;10.45;;;2.65;;
71462;SDS011;59266;52.608;13.260;2024-02-04T09:47:09;8.65;;;1.60;;
71462;SDS011;59266;52.608;13.260;2024-02-04T09:49:38;6.18;;;1.67;;
71462;SDS011;59266;52.608;13.260;2024-02-04T09:52:08;10.45;;;1.80;;
71462;SDS011;59266;52.608;13.260;2024-02-04T09:54:38;8.77;;;2.53;;
71462;SDS011;59266;52.608;13.260;2024-02-04T09:57:11;11.68;;;1.77;;
71462;SDS011;59266;52.608;13.260;2024-02-04T09:59:41;6.80;;;1.38;;
71462;SDS011;59266;52.608;13.260;2024-02-04T10:02:09;11.35;;;2.00;;
71462;SDS011;59266;52.608;13.260;2024-02-04T10:04:36;7.80;;;1.60;;
71462;SDS011;59266;52.608;13.260;2024-02-04T10:07:04;7.22;;;1.52;;
71462;SDS011;59266;52.608;13.260;2024-02-04T10:09:31;8.35;;;1.45;;
71462;SDS011;59266;52.608;13.260;2024-02-04T10:11:58;7.85;;;1.38;;
71462;SDS011;59266;52.608;13.260;2024-02-04T10:14:25;9.70;;;1.23;;
71462;SDS011;59266;52.608;13.260;2024-02-04T10:16:52;6.20;;;1.33;;
71462;SDS011;59266;52.608;13.260;2024-02-04T10:19:19;10.43;;;1.25;;
71462;SDS011;59266;52.608;13.260;2024-02-04T10:21:45;7.03;;;1.50;;
71462;SDS011;59266;52.608;13.260;2024-02-04T10:24:12;7.03;;;1.30;;
71462;SDS011;59266;52.608;13.260;2024-02-04T10:26:39;9.32;;;1.65;;
71462;SDS011;59266;52.608;13.260;2024-02-04T10:29:08;8.55;;;1.30;;
71462;SDS011;59266;52.608;13.260;2024-02-04T10:31:34;8.77;;;1.38;;
71462;SDS011;59266;52.608;13.260;2024-02-04T10:34:01;6.30;;;1.40;;
71462;SDS011;59266;52.608;13.260;2024-02-04T10:36:30;11.48;;;2.85;;
71462;SDS011;59266;52.608;13.260;2024-02-04T10:38:56;8.48;;;2.40;;
71462;SDS011;59266;52.608;13.260;2024-02-04T10:41:23;9.85;;;1.80;;
71462;SDS011;59266;52.608;13.260;2024-02-04T10:43:51;10.63;;;2.10;;
71462;SDS011;59266;52.608;13.260;2024-02-04T10:46:20;8.63;;;1.70;;
71462;SDS011;59266;52.608;13.260;2024-02-04T10:48:54;9.35;;;1.98;;
71462;SDS011;59266;52.608;13.260;2024-02-04T10:51:25;9.73;;;1.83;;
71462;SDS011;59266;52.608;13.260;2024-02-04T10:53:55;8.82;;;1.55;;
71462;SDS011;59266;52.608;13.260;2024-02-04T10:56:26;8.40;;;1.75;;
71462;SDS011;59266;52.608;13.260;2024-02-04T10:58:57;9.70;;;1.90;;
71462;SDS011;59266;52.608;13.260;2024-02-04T11:01:26;9.60;;;1.98;;
71462;SDS011;59266;52.608;13.260;2024-02-04T11:03:54;6.45;;;1.40;;
71462;SDS011;59266;52.608;13.260;2024-02-04T11:06:21;7.82;;;1.40;;
71462;SDS011;59266;52.608;13.260;2024-02-04T11:08:50;7.55;;;1.17;;
71462;SDS011;59266;52.608;13.260;2024-02-04T11:11:22;10.75;;;1.65;;
71462;SDS011;59266;52.608;13.260;2024-02-04T11:13:51;7.43;;;2.00;;
71462;SDS011;59266;52.608;13.260;2024-02-04T11:16:24;11.25;;;1.50;;
71462;SDS011;59266;52.608;13.260;2024-02-04T11:19:08;7.75;;;1.33;;
71462;SDS011;59266;52.608;13.260;2024-02-04T11:22:04;8.70;;;1.60;;
71462;SDS011;59266;52.608;13.260;2024-02-04T11:27:51;10.00;;;1.63;;
71462;SDS011;59266;52.608;13.260;2024-02-04T11:30:18;4.82;;;1.35;;
71462;SDS011;59266;52.608;13.260;2024-02-04T11:32:46;4.65;;;1.30;;
71462;SDS011;59266;52.608;13.260;2024-02-04T11:35:13;7.90;;;1.58;;
71462;SDS011;59266;52.608;13.260;2024-02-04T11:37:41;6.70;;;1.65;;
71462;SDS011;59266;52.608;13.260;2024-02-04T11:40:13;6.22;;;1.20;;
71462;SDS011;59266;52.608;13.260;2024-02-04T11:42:42;8.05;;;1.25;;
71462;SDS011;59266;52.608;13.260;2024-02-04T11:45:09;8.35;;;1.60;;
71462;SDS011;59266;52.608;13.260;2024-02-04T11:47:38;6.25;;;1.33;;
71462;SDS011;59266;52.608;13.260;2024-02-04T11:50:07;5.95;;;1.40;;
71462;SDS011;59266;52.608;13.260;2024-02-04T11:52:36;7.68;;;1.52;;
71462;SDS011;59266;52.608;13.260;2024-02-04T11:55:04;9.15;;;1.63;;
71462;SDS011;59266;52.608;13.260;2024-02-04T11:57:33;4.05;;;1.30;;
71462;SDS011;59266;52.608;13.260;2024-02-04T12:00:04;6.32;;;1.60;;
71462;SDS011;59266;52.608;13.260;2024-02-04T12:02:33;5.65;;;1.40;;
71462;SDS011;59266;52.608;13.260;2024-02-04T12:05:00;7.45;;;1.35;;
71462;SDS011;59266;52.608;13.260;2024-02-04T12:07:27;7.93;;;1.48;;
71462;SDS011;59266;52.608;13.260;2024-02-04T12:09:56;3.63;;;1.15;;
71462;SDS011;59266;52.608;13.260;2024-02-04T12:12:23;6.40;;;1.50;;
71462;SDS011;59266;52.608;13.260;2024-02-04T12:14:51;13.90;;;2.00;;
71462;SDS011;59266;52.608;13.260;2024-02-04T12:17:19;7.10;;;1.38;;
71462;SDS011;59266;52.608;13.260;2024-02-04T12:19:46;7.88;;;1.40;;
71462;SDS011;59266;52.608;13.260;2024-02-04T12:22:14;6.82;;;1.50;;
71462;SDS011;59266;52.608;13.260;2024-02-04T12:24:43;8.68;;;1.20;;
71462;SDS011;59266;52.608;13.260;2024-02-04T12:27:09;5.70;;;1.40;;
71462;SDS011;59266;52.608;13.260;2024-02-04T12:29:37;5.32;;;1.30;;
71462;SDS011;59266;52.608;13.260;2024-02-04T12:32:04;6.53;;;1.50;;
71462;SDS011;59266;52.608;13.260;2024-02-04T12:34:31;7.53;;;1.67;;
71462;SDS011;59266;52.608;13.260;2024-02-04T12:37:00;7.25;;;1.55;;
71462;SDS011;59266;52.608;13.260;2024-02-04T12:39:28;6.93;;;1.35;;
71462;SDS011;59266;52.608;13.260;2024-02-04T12:41:55;5.97;;;1.73;;
71462;SDS011;59266;52.608;13.260;2024-02-04T12:44:21;10.23;;;1.50;;
71462;SDS011;59266;52.608;13.260;2024-02-04T12:46:51;8.43;;;1.70;;
71462;SDS011;59266;52.608;13.260;2024-02-04T12:49:19;8.40;;;1.73;;
71462;SDS011;59266;52.608;13.260;2024-02-04T12:51:48;12.10;;;1.75;;
71462;SDS011;59266;52.608;13.260;2024-02-04T12:54:22;6.15;;;1.33;;
71462;SDS011;59266;52.608;13.260;2024-02-04T12:56:50;13.98;;;1.60;;
71462;SDS011;59266;52.608;13.260;2024-02-04T12:59:24;5.35;;;1.30;;
71462;SDS011;59266;52.608;13.260;2024-02-04T13:01:58;8.32;;;1.48;;
71462;SDS011;59266;52.608;13.260;2024-02-04T13:04:32;7.90;;;1.35;;
71462;SDS011;59266;52.608;13.260;2024-02-04T13:07:00;8.90;;;1.75;;
71462;SDS011;59266;52.608;13.260;2024-02-04T13:09:27;10.50;;;1.95;;
71462;SDS011;59266;52.608;13.260;2024-02-04T13:12:02;10.32;;;1.67;;
71462;SDS011;59266;52.608;13.260;2024-02-04T13:14:29;9.70;;;1.50;;
71462;SDS011;59266;52.608;13.260;2024-02-04T13:16:57;11.05;;;1.70;;
71462;SDS011;59266;52.608;13.260;2024-02-04T13:19:24;10.38;;;2.00;;
71462;SDS011;59266;52.608;13.260;2024-02-04T13:22:01;10.43;;;1.67;;
71462;SDS011;59266;52.608;13.260;2024-02-04T13:24:30;7.10;;;1.58;;
71462;SDS011;59266;52.608;13.260;2024-02-04T13:26:59;6.55;;;1.40;;
71462;SDS011;59266;52.608;13.260;2024-02-04T13:29:27;9.00;;;1.40;;
71462;SDS011;59266;52.608;13.260;2024-02-04T13:32:00;6.63;;;1.40;;
71462;SDS011;59266;52.608;13.260;2024-02-04T13:34:29;7.35;;;1.50;;
71462;SDS011;59266;52.608;13.260;2024-02-04T13:36:57;10.32;;;1.60;;
71462;SDS011;59266;52.608;13.260;2024-02-04T13:39:24;11.35;;;1.60;;
71462;SDS011;59266;52.608;13.260;2024-02-04T13:41:53;8.85;;;1.83;;
71462;SDS011;59266;52.608;13.260;2024-02-04T13:44:22;9.40;;;1.40;;
71462;SDS011;59266;52.608;13.260;2024-02-04T13:46:51;10.95;;;1.80;;
71462;SDS011;59266;52.608;13.260;2024-02-04T13:49:18;7.95;;;2.28;;
71462;SDS011;59266;52.608;13.260;2024-02-04T13:51:45;6.47;;;1.08;;
71462;SDS011;59266;52.608;13.260;2024-02-04T13:54:12;12.32;;;1.70;;
71462;SDS011;59266;52.608;13.260;2024-02-04T13:56:44;9.23;;;1.60;;
71462;SDS011;59266;52.608;13.260;2024-02-04T13:59:12;14.20;;;2.08;;
71462;SDS011;59266;52.608;13.260;2024-02-04T14:01:42;11.40;;;1.40;;
71462;SDS011;59266;52.608;13.260;2024-02-04T14:04:37;9.85;;;1.55;;
71462;SDS011;59266;52.608;13.260;2024-02-04T14:07:10;8.50;;;2.42;;
71462;SDS011;59266;52.608;13.260;2024-02-04T14:09:38;8.65;;;1.70;;
71462;SDS011;59266;52.608;13.260;2024-02-04T14:12:05;8.10;;;1.42;;
71462;SDS011;59266;52.608;13.260;2024-02-04T14:14:32;8.30;;;1.80;;
71462;SDS011;59266;52.608;13.260;2024-02-04T14:17:01;7.43;;;1.60;;
71462;SDS011;59266;52.608;13.260;2024-02-04T14:19:42;8.40;;;1.70;;
71462;SDS011;59266;52.608;13.260;2024-02-04T14:22:12;9.10;;;1.65;;
71462;SDS011;59266;52.608;13.260;2024-02-04T14:24:39;7.25;;;1.88;;
71462;SDS011;59266;52.608;13.260;2024-02-04T14:27:07;6.30;;;1.55;;
71462;SDS011;59266;52.608;13.260;2024-02-04T14:29:38;6.15;;;1.50;;
71462;SDS011;59266;52.608;13.260;2024-02-04T14:32:23;12.48;;;2.05;;
71462;SDS011;59266;52.608;13.260;2024-02-04T14:37:21;6.57;;;1.67;;
71462;SDS011;59266;52.608;13.260;2024-02-04T14:39:48;5.25;;;1.35;;